Time;durP1;ratioP1;P1;durP2;ratioP2;P2;SDS_P1;SDS_P2;PMS_P1;PMS_P2;Temp;Humidity;BMP_temperature;BMP_pressure;BME280_temperature;BME280_humidity;BME280_pressure;Samples;Min_cycle;Max_cycle;Signal;HPM_P1;HPM_P2
2022/01/27 00:05:32;;;;;;;;;;;5.60;99.90;;;;;;5001647;28;20057;-62
2022/01/27 00:12:59;;;;;;;18.00;8.80;;;5.60;99.90;;;;;;5001393;28;20042;-62
2022/01/27 00:15:31;;;;;;;23.83;8.20;;;5.60;99.90;;;;;;5001699;28;20383;-62
2022/01/27 00:18:01;;;;;;;24.35;9.10;;;5.70;99.90;;;;;;4999524;28;20061;-61
2022/01/27 00:20:26;;;;;;;25.42;9.27;;;5.60;99.90;;;;;;4998170;28;20594;-61
2022/01/27 00:22:52;;;;;;;19.25;8.38;;;5.60;99.90;;;;;;5006148;28;20138;-61
2022/01/27 00:25:18;;;;;;;25.15;8.02;;;5.60;99.90;;;;;;4994173;28;20406;-61
2022/01/27 00:27:43;;;;;;;19.65;8.95;;;5.60;99.90;;;;;;4997946;28;20050;-62
2022/01/27 00:30:10;;;;;;;22.08;8.23;;;5.70;99.90;;;;;;4997999;28;20041;-61
2022/01/27 00:32:36;;;;;;;24.08;9.32;;;5.60;99.90;;;;;;5001589;28;20038;-61
2022/01/27 00:35:03;;;;;;;20.52;8.68;;;5.60;99.90;;;;;;5000754;28;20040;-61
2022/01/27 00:37:29;;;;;;;29.20;10.05;;;5.60;99.90;;;;;;4997361;28;20022;-60
2022/01/27 00:39:55;;;;;;;26.60;9.07;;;5.60;99.90;;;;;;4996778;28;20031;-63
2022/01/27 00:42:21;;;;;;;22.17;8.05;;;5.60;99.90;;;;;;5002778;28;20030;-61
2022/01/27 00:44:47;;;;;;;20.90;8.70;;;5.70;99.90;;;;;;4995260;28;20045;-62
2022/01/27 00:47:12;;;;;;;20.58;7.55;;;5.70;99.90;;;;;;5001481;28;20060;-61
2022/01/27 00:49:38;;;;;;;23.33;8.07;;;5.80;99.90;;;;;;5001340;28;20035;-61
2022/01/27 00:52:09;;;;;;;19.23;8.60;;;5.70;99.90;;;;;;5004723;28;20033;-60
2022/01/27 00:54:34;;;;;;;23.02;7.78;;;5.70;99.90;;;;;;5001466;28;20057;-60
2022/01/27 00:59:46;;;;;;;18.08;7.50;;;5.70;99.90;;;;;;5000933;28;20488;-60
2022/01/27 01:02:31;;;;;;;21.55;8.00;;;5.70;99.90;;;;;;4998460;28;20487;-61
2022/01/27 01:07:44;;;;;;;22.50;8.88;;;5.70;99.90;;;;;;5005554;28;20089;-61
2022/01/27 01:15:16;;;;;;;19.98;7.70;;;5.70;99.90;;;;;;4997470;28;20030;-62
2022/01/27 01:33:46;;;;;;;20.08;7.90;;;5.80;99.90;;;;;;4999417;28;20429;-61
2022/01/27 01:36:34;;;;;;;18.30;7.68;;;5.80;99.90;;;;;;5001058;28;20030;-62
2022/01/27 01:38:59;;;;;;;19.38;7.50;;;5.70;99.90;;;;;;5000688;28;20061;-61
2022/01/27 01:41:25;;;;;;;19.98;9.38;;;5.70;99.90;;;;;;5002488;28;20042;-62
2022/01/27 01:43:50;;;;;;;21.25;8.02;;;5.70;99.90;;;;;;5003373;28;20034;-61
2022/01/27 01:46:16;;;;;;;19.30;8.23;;;5.70;99.90;;;;;;5002795;28;20033;-64
2022/01/27 01:48:42;;;;;;;18.75;7.75;;;5.70;99.90;;;;;;5016054;28;20525;-63
2022/01/27 01:51:07;;;;;;;22.13;7.88;;;5.70;99.90;;;;;;5003262;28;20112;-61
2022/01/27 01:53:33;;;;;;;22.00;8.38;;;5.70;99.90;;;;;;4999932;28;20042;-64
2022/01/27 01:55:58;;;;;;;18.48;8.15;;;5.70;99.90;;;;;;5002935;28;20099;-61
2022/01/27 01:58:24;;;;;;;24.23;8.27;;;5.70;99.90;;;;;;5003955;28;20153;-61
2022/01/27 02:00:50;;;;;;;18.15;8.15;;;5.70;99.90;;;;;;5000928;28;20036;-62
2022/01/27 02:03:15;;;;;;;19.38;8.10;;;5.70;99.90;;;;;;5001470;28;20045;-62
2022/01/27 02:05:48;;;;;;;20.67;8.45;;;5.70;99.90;;;;;;5002483;28;20033;-62
2022/01/27 02:19:15;;;;;;;20.30;8.40;;;5.50;99.90;;;;;;4998772;28;20084;-62
2022/01/27 02:21:44;;;;;;;20.75;8.95;;;5.60;99.90;;;;;;5001373;28;20030;-62
2022/01/27 02:24:09;;;;;;;26.63;10.00;;;5.50;99.90;;;;;;5000410;28;20046;-62
2022/01/27 02:26:35;;;;;;;21.17;8.60;;;5.50;99.90;;;;;;5002851;28;20479;-63
2022/01/27 02:29:00;;;;;;;21.98;8.23;;;5.50;99.90;;;;;;4999899;28;20046;-62
2022/01/27 02:31:26;;;;;;;21.80;9.07;;;5.40;99.90;;;;;;5001464;28;20030;-62
2022/01/27 02:33:58;;;;;;;20.70;8.95;;;5.30;99.90;;;;;;5000359;28;20030;-62
2022/01/27 02:36:23;;;;;;;24.77;10.77;;;5.30;99.90;;;;;;5001889;28;20038;-62
2022/01/27 02:38:49;;;;;;;22.08;8.85;;;5.30;99.90;;;;;;5000422;28;20030;-61
2022/01/27 02:41:16;;;;;;;28.17;10.77;;;5.30;99.90;;;;;;5000517;28;20030;-62
2022/01/27 02:43:42;;;;;;;23.30;8.50;;;5.30;99.90;;;;;;5001992;28;20034;-61
2022/01/27 02:46:19;;;;;;;26.23;8.70;;;5.30;99.90;;;;;;5002069;28;20734;-63
2022/01/27 02:48:45;;;;;;;25.48;8.68;;;5.30;99.90;;;;;;5000496;28;20046;-61
2022/01/27 02:51:10;;;;;;;22.00;9.13;;;5.30;99.90;;;;;;5000041;28;20513;-63
2022/01/27 02:53:36;;;;;;;23.85;8.95;;;5.30;99.90;;;;;;4995056;28;20093;-62
2022/01/27 02:56:02;;;;;;;22.50;8.27;;;5.30;99.90;;;;;;5002633;28;20045;-62
2022/01/27 02:58:27;;;;;;;22.30;8.68;;;5.40;99.90;;;;;;4999111;28;20114;-61
2022/01/27 03:00:53;;;;;;;19.17;8.48;;;5.40;99.90;;;;;;5000994;28;20058;-61
2022/01/27 03:03:18;;;;;;;18.55;8.45;;;5.40;99.90;;;;;;5000182;28;20040;-62
2022/01/27 03:05:44;;;;;;;21.70;8.88;;;5.40;99.90;;;;;;5001607;28;20046;-62
2022/01/27 03:08:09;;;;;;;21.92;8.43;;;5.40;99.90;;;;;;5002680;28;20058;-63
2022/01/27 03:10:42;;;;;;;19.73;8.40;;;5.40;99.90;;;;;;5000782;28;20048;-63
2022/01/27 03:13:08;;;;;;;34.13;8.80;;;5.40;99.90;;;;;;5002306;28;20041;-61
2022/01/27 03:15:34;;;;;;;24.25;9.68;;;5.50;99.90;;;;;;5000020;28;20035;-63
2022/01/27 03:18:00;;;;;;;20.95;7.88;;;5.60;99.90;;;;;;5003220;28;20517;-61
2022/01/27 03:20:32;;;;;;;23.63;9.57;;;5.50;99.90;;;;;;4998758;28;20038;-62
2022/01/27 03:23:02;;;;;;;20.88;7.93;;;5.50;99.90;;;;;;5001693;28;20030;-62
2022/01/27 03:25:28;;;;;;;25.10;9.02;;;5.50;99.90;;;;;;4994735;28;20073;-62
2022/01/27 03:27:54;;;;;;;28.35;8.85;;;5.50;99.90;;;;;;5001514;28;20064;-62
2022/01/27 03:30:19;;;;;;;25.23;8.57;;;5.50;99.90;;;;;;4999364;28;20045;-62
2022/01/27 03:32:45;;;;;;;21.73;7.93;;;5.50;99.90;;;;;;4999788;28;20041;-61
2022/01/27 03:35:11;;;;;;;22.33;8.43;;;5.50;99.90;;;;;;4999250;28;20030;-61
2022/01/27 03:37:37;;;;;;;23.95;8.10;;;5.50;99.90;;;;;;4999069;28;20033;-63
2022/01/27 03:40:04;;;;;;;22.98;8.93;;;5.50;99.90;;;;;;5001266;28;20034;-62
2022/01/27 03:42:30;;;;;;;18.98;7.63;;;5.50;99.90;;;;;;4999994;28;20084;-63
2022/01/27 03:44:56;;;;;;;26.55;8.68;;;5.50;99.90;;;;;;5001254;28;20116;-62
2022/01/27 03:47:21;;;;;;;21.27;8.38;;;5.50;99.90;;;;;;4999222;28;20026;-61
2022/01/27 03:49:47;;;;;;;20.77;8.40;;;5.50;99.90;;;;;;5000686;28;20042;-63
2022/01/27 03:52:13;;;;;;;24.27;8.65;;;5.50;99.90;;;;;;4999990;28;20544;-61
2022/01/27 03:54:38;;;;;;;24.48;9.48;;;5.50;99.90;;;;;;4999437;28;20038;-64
2022/01/27 03:57:04;;;;;;;24.88;8.32;;;5.50;99.90;;;;;;5001243;28;20034;-62
2022/01/27 03:59:30;;;;;;;16.33;7.18;;;5.50;99.90;;;;;;4998971;28;20034;-63
2022/01/27 04:01:56;;;;;;;26.85;8.65;;;5.40;99.90;;;;;;5000898;28;20092;-62
2022/01/27 04:04:22;;;;;;;29.02;9.50;;;5.40;99.90;;;;;;4998598;28;20026;-61
2022/01/27 04:06:51;;;;;;;21.17;8.52;;;5.40;99.90;;;;;;5000464;28;20042;-61
2022/01/27 04:09:17;;;;;;;21.60;7.85;;;5.40;99.90;;;;;;4998877;28;20034;-62
2022/01/27 04:11:42;;;;;;;25.40;8.48;;;5.40;99.90;;;;;;4999093;28;20034;-62
2022/01/27 04:14:10;;;;;;;26.27;8.73;;;5.40;99.90;;;;;;4998306;28;20026;-61
2022/01/27 04:16:36;;;;;;;20.67;7.10;;;5.50;99.90;;;;;;4998191;28;20077;-62
2022/01/27 04:19:03;;;;;;;21.45;8.20;;;5.50;99.90;;;;;;5000082;28;20026;-62
2022/01/27 04:21:28;;;;;;;23.83;8.18;;;5.50;99.90;;;;;;5000308;28;20084;-62
2022/01/27 04:23:54;;;;;;;22.65;9.07;;;5.50;99.90;;;;;;5003133;28;20030;-62
2022/01/27 04:26:25;;;;;;;22.75;8.52;;;5.50;99.90;;;;;;5000917;28;20038;-62
2022/01/27 04:28:52;;;;;;;20.17;8.30;;;5.50;99.90;;;;;;5003326;28;20057;-63
2022/01/27 04:31:18;;;;;;;20.92;8.50;;;5.50;99.90;;;;;;4994267;28;20085;-62
2022/01/27 04:33:44;;;;;;;23.67;8.02;;;5.50;99.90;;;;;;5001293;28;20506;-61
2022/01/27 04:36:22;;;;;;;19.60;7.70;;;5.60;99.90;;;;;;5002724;28;20062;-62
2022/01/27 04:41:28;;;;;;;27.27;7.80;;;5.60;99.90;;;;;;5002576;28;20054;-62
2022/01/27 04:44:01;;;;;;;21.48;7.97;;;5.60;99.90;;;;;;4996154;28;20090;-63
2022/01/27 04:46:35;;;;;;;20.80;7.78;;;5.60;99.90;;;;;;4996126;28;20038;-62
2022/01/27 04:49:03;;;;;;;21.67;7.93;;;5.60;99.90;;;;;;5002671;28;20026;-61
2022/01/27 04:51:30;;;;;;;18.95;7.70;;;5.60;99.90;;;;;;5000255;28;20022;-63
2022/01/27 04:54:03;;;;;;;22.40;8.27;;;5.60;99.90;;;;;;5002909;28;20034;-62
2022/01/27 04:56:31;;;;;;;24.20;8.10;;;5.60;99.90;;;;;;4997733;28;20030;-62
2022/01/27 04:59:01;;;;;;;24.52;7.53;;;5.70;99.90;;;;;;5001547;28;20038;-63
2022/01/27 05:01:35;;;;;;;21.48;7.28;;;5.70;99.90;;;;;;5000200;28;20038;-61
2022/01/27 05:04:09;;;;;;;21.23;7.35;;;5.60;99.90;;;;;;5002248;28;20046;-62
2022/01/27 05:06:35;;;;;;;23.83;7.82;;;5.60;99.90;;;;;;4999615;28;20123;-63
2022/01/27 05:09:01;;;;;;;25.87;9.00;;;5.70;99.90;;;;;;4961361;28;1149629;-63
2022/01/27 05:11:31;;;;;;;26.40;7.90;;;5.70;99.90;;;;;;5000505;28;20285;-63
2022/01/27 05:14:03;;;;;;;20.98;7.03;;;5.70;99.90;;;;;;5002369;28;20429;-62
2022/01/27 05:16:29;;;;;;;40.60;10.38;;;5.70;99.90;;;;;;5001711;28;20117;-63
2022/01/27 05:18:54;;;;;;;16.73;6.68;;;5.80;99.90;;;;;;5003827;28;20164;-62
2022/01/27 05:21:21;;;;;;;25.00;7.35;;;5.80;99.90;;;;;;5005226;28;20096;-62
2022/01/27 05:23:46;;;;;;;23.38;7.22;;;5.80;99.90;;;;;;5003457;28;20044;-62
2022/01/27 05:26:12;;;;;;;20.98;6.97;;;5.80;99.90;;;;;;5002526;28;20030;-63
2022/01/27 05:28:38;;;;;;;20.63;7.68;;;5.80;99.90;;;;;;5002440;28;20042;-62
2022/01/27 05:31:05;;;;;;;18.55;6.95;;;5.90;99.90;;;;;;4997331;28;20328;-63
2022/01/27 05:33:31;;;;;;;30.23;6.75;;;5.90;99.90;;;;;;4988824;28;20034;-62
2022/01/27 05:35:56;;;;;;;20.27;7.05;;;5.90;99.90;;;;;;4993892;28;20041;-62
2022/01/27 05:38:22;;;;;;;19.60;6.05;;;5.90;99.90;;;;;;4991543;28;20035;-62
2022/01/27 05:40:48;;;;;;;17.70;6.88;;;5.90;99.90;;;;;;4994078;28;20057;-61
2022/01/27 05:43:13;;;;;;;21.13;6.63;;;6.00;99.90;;;;;;4995364;28;20494;-64
2022/01/27 05:45:39;;;;;;;19.27;6.40;;;6.00;99.90;;;;;;4992648;28;20145;-62
2022/01/27 05:48:06;;;;;;;28.15;6.57;;;6.00;99.90;;;;;;4995323;28;20045;-62
2022/01/27 05:50:32;;;;;;;26.33;5.80;;;6.00;99.90;;;;;;4992565;28;20042;-62
2022/01/27 05:52:58;;;;;;;23.50;5.97;;;6.10;99.90;;;;;;4994024;28;20372;-63
2022/01/27 05:55:24;;;;;;;26.10;6.38;;;6.10;99.90;;;;;;4999523;28;20536;-61
2022/01/27 05:57:50;;;;;;;19.77;6.28;;;6.20;99.90;;;;;;4996443;28;20042;-62
2022/01/27 06:00:16;;;;;;;14.68;4.75;;;6.20;99.90;;;;;;4997744;28;20497;-61
2022/01/27 06:02:41;;;;;;;16.73;6.78;;;6.20;99.90;;;;;;4997106;28;20038;-61
2022/01/27 06:05:07;;;;;;;19.15;5.20;;;6.30;99.90;;;;;;5001475;28;20050;-62
2022/01/27 06:07:33;;;;;;;16.45;5.40;;;6.30;99.90;;;;;;4999838;28;20042;-62
2022/01/27 06:09:58;;;;;;;18.92;5.05;;;6.30;99.90;;;;;;4994305;28;20077;-63
2022/01/27 06:12:24;;;;;;;21.65;4.85;;;6.40;99.90;;;;;;5001029;28;20042;-62
2022/01/27 06:14:50;;;;;;;15.95;4.88;;;6.40;99.90;;;;;;4992807;28;20124;-62
2022/01/27 06:17:16;;;;;;;14.80;4.38;;;6.50;99.90;;;;;;4994713;28;20099;-61
2022/01/27 06:19:46;;;;;;;19.45;4.95;;;6.50;99.90;;;;;;4997779;28;20034;-61
2022/01/27 06:22:13;;;;;;;17.67;5.05;;;6.60;99.90;;;;;;4995018;28;20048;-62
2022/01/27 06:24:43;;;;;;;17.50;5.65;;;6.60;99.90;;;;;;4997991;28;20034;-62
2022/01/27 06:27:10;;;;;;;18.90;6.28;;;6.60;99.90;;;;;;4994191;28;20504;-61
2022/01/27 06:29:35;;;;;;;19.10;5.78;;;6.60;99.90;;;;;;4998310;28;20037;-63
2022/01/27 06:32:02;;;;;;;14.30;4.80;;;6.60;99.90;;;;;;4998601;28;20468;-63
2022/01/27 06:34:28;;;;;;;18.00;5.53;;;6.70;99.90;;;;;;4995843;28;20125;-62
2022/01/27 06:36:53;;;;;;;27.48;6.13;;;6.70;99.90;;;;;;4998568;28;20134;-62
2022/01/27 06:39:19;;;;;;;16.20;5.80;;;6.80;99.90;;;;;;4998429;28;20029;-60
2022/01/27 06:41:45;;;;;;;20.33;5.65;;;6.80;99.90;;;;;;4997016;28;20084;-63
2022/01/27 06:44:11;;;;;;;15.32;4.97;;;6.90;99.90;;;;;;4997128;28;20084;-61
2022/01/27 06:46:36;;;;;;;19.40;4.75;;;6.80;99.90;;;;;;4999793;28;20036;-62
2022/01/27 06:49:03;;;;;;;19.27;4.75;;;6.90;99.90;;;;;;4997582;28;20030;-61
2022/01/27 06:51:29;;;;;;;19.02;5.18;;;7.00;99.90;;;;;;4996058;28;20030;-61
2022/01/27 06:53:55;;;;;;;27.52;7.25;;;7.00;99.90;;;;;;5000719;28;20111;-62
2022/01/27 06:56:21;;;;;;;14.55;5.03;;;7.00;99.90;;;;;;4997359;28;20569;-62
2022/01/27 06:58:46;;;;;;;20.75;6.05;;;7.00;99.90;;;;;;4995054;28;20038;-61
2022/01/27 07:01:12;;;;;;;17.42;5.35;;;7.00;99.90;;;;;;5000244;28;20026;-62
2022/01/27 07:03:37;;;;;;;23.25;5.43;;;7.00;99.90;;;;;;4997502;28;20410;-62
2022/01/27 07:06:03;;;;;;;15.07;4.60;;;6.90;99.90;;;;;;4994982;28;20026;-62
2022/01/27 07:08:29;;;;;;;27.88;6.70;;;6.90;99.90;;;;;;4998984;28;20305;-61
2022/01/27 07:10:54;;;;;;;18.70;5.72;;;6.80;99.90;;;;;;4997875;28;21187;-61
2022/01/27 07:13:20;;;;;;;20.30;5.50;;;6.80;99.90;;;;;;4996270;28;20034;-61
2022/01/27 07:15:45;;;;;;;24.10;6.32;;;6.80;99.90;;;;;;4996474;28;20038;-61
2022/01/27 07:18:11;;;;;;;22.90;5.90;;;6.80;99.90;;;;;;4999864;28;20169;-63
2022/01/27 07:20:37;;;;;;;25.20;5.95;;;6.70;99.90;;;;;;5018977;23;20050;-68
2022/01/27 07:23:02;;;;;;;32.15;7.50;;;6.70;99.90;;;;;;5010684;28;20057;-67
2022/01/27 07:25:28;;;;;;;23.48;6.45;;;6.60;99.90;;;;;;5011289;28;20033;-69
2022/01/27 07:27:54;;;;;;;26.13;6.80;;;6.60;99.90;;;;;;5010686;28;20383;-67
2022/01/27 07:30:19;;;;;;;21.90;6.25;;;6.60;99.90;;;;;;5008499;28;20116;-68
2022/01/27 07:32:45;;;;;;;25.65;5.55;;;6.60;99.90;;;;;;5009834;28;20410;-65
2022/01/27 07:35:10;;;;;;;20.77;6.63;;;6.70;99.90;;;;;;5026518;23;20052;-66
2022/01/27 07:37:37;;;;;;;30.23;5.72;;;6.60;99.90;;;;;;5018983;28;20761;-67
2022/01/27 07:40:04;;;;;;;28.00;6.60;;;6.70;99.90;;;;;;5030552;28;20073;-66
2022/01/27 07:42:29;;;;;;;27.27;6.32;;;6.70;99.90;;;;;;5040401;28;20048;-66
2022/01/27 07:44:55;;;;;;;22.25;6.00;;;6.70;99.90;;;;;;5030469;28;20033;-67
2022/01/27 07:47:20;;;;;;;21.02;6.28;;;6.70;99.90;;;;;;5031244;28;20489;-67
2022/01/27 07:49:46;;;;;;;18.65;5.43;;;6.70;99.90;;;;;;5042214;28;20048;-67
2022/01/27 07:52:12;;;;;;;23.80;6.40;;;6.70;99.90;;;;;;5027705;28;20037;-66
2022/01/27 07:54:38;;;;;;;25.40;6.03;;;6.70;99.90;;;;;;5029977;28;20072;-69
2022/01/27 07:57:04;;;;;;;23.48;6.20;;;6.80;99.90;;;;;;5028231;28;20045;-66
2022/01/27 07:59:29;;;;;;;18.50;5.25;;;6.80;99.90;;;;;;5019418;28;20029;-67
2022/01/27 08:01:55;;;;;;;18.02;6.35;;;6.80;99.90;;;;;;5028395;28;20040;-67
2022/01/27 08:04:20;;;;;;;14.35;5.55;;;6.80;99.90;;;;;;5016782;28;20444;-69
2022/01/27 08:06:46;;;;;;;20.85;5.68;;;6.80;99.90;;;;;;5028179;28;20041;-69
2022/01/27 08:09:11;;;;;;;32.20;6.25;;;6.80;99.90;;;;;;5032995;28;20389;-67
2022/01/27 08:11:37;;;;;;;24.90;5.88;;;6.90;99.90;;;;;;5028280;28;20026;-67
2022/01/27 08:14:03;;;;;;;23.48;5.90;;;6.90;99.90;;;;;;5031293;28;20067;-68
2022/01/27 08:16:28;;;;;;;16.27;5.57;;;6.90;99.90;;;;;;5029020;28;20473;-68
2022/01/27 08:18:54;;;;;;;20.83;5.15;;;6.90;99.90;;;;;;5018791;28;20037;-67
2022/01/27 08:21:19;;;;;;;18.50;4.97;;;6.90;99.90;;;;;;5031580;28;20473;-66
2022/01/27 08:23:45;;;;;;;23.58;5.65;;;6.90;99.90;;;;;;5030949;28;20166;-67
2022/01/27 08:26:15;;;;;;;27.08;6.05;;;6.90;99.90;;;;;;5029576;28;20041;-66
2022/01/27 08:28:49;;;;;;;12.25;5.00;;;6.90;99.90;;;;;;5030138;28;20076;-66
2022/01/27 08:31:15;;;;;;;16.50;5.80;;;6.90;99.90;;;;;;5029991;28;20076;-67
2022/01/27 08:33:41;;;;;;;15.50;5.47;;;7.00;99.90;;;;;;5031096;28;20080;-67
2022/01/27 08:36:07;;;;;;;29.92;7.13;;;7.00;99.90;;;;;;5041131;28;20044;-66
2022/01/27 08:38:36;;;;;;;20.73;6.65;;;7.00;99.90;;;;;;5030652;28;20028;-67
2022/01/27 08:41:03;;;;;;;21.23;6.05;;;7.00;99.90;;;;;;5029922;28;20481;-67
2022/01/27 08:43:28;;;;;;;22.27;5.50;;;7.00;99.90;;;;;;5011082;28;20064;-67
2022/01/27 08:45:54;;;;;;;16.65;5.20;;;7.00;99.90;;;;;;5039145;28;20064;-66
2022/01/27 08:48:21;;;;;;;17.40;4.82;;;7.00;99.90;;;;;;5027537;28;20482;-65
2022/01/27 08:50:58;;;;;;;20.48;5.78;;;7.00;99.90;;;;;;5016332;28;20048;-67
2022/01/27 08:53:25;;;;;;;17.63;4.60;;;7.10;99.90;;;;;;5015131;28;20068;-66
2022/01/27 08:55:51;;;;;;;17.20;4.78;;;7.10;99.90;;;;;;5030195;28;20059;-66
2022/01/27 08:58:16;;;;;;;16.95;5.25;;;7.10;99.90;;;;;;5028386;28;20567;-66
2022/01/27 09:00:42;;;;;;;18.73;5.30;;;7.10;99.90;;;;;;5029503;28;20061;-65
2022/01/27 09:03:08;;;;;;;15.07;5.03;;;7.10;99.90;;;;;;5031305;28;20040;-67
2022/01/27 09:05:34;;;;;;;13.98;5.00;;;7.20;99.90;;;;;;5031567;28;20029;-66
2022/01/27 09:08:01;;;;;;;22.15;5.00;;;7.20;99.90;;;;;;5031171;28;20116;-66
2022/01/27 09:10:31;;;;;;;15.18;5.05;;;7.20;99.90;;;;;;5033170;28;20033;-66
2022/01/27 09:12:58;;;;;;;26.33;6.88;;;7.20;99.90;;;;;;5032668;28;20084;-65
2022/01/27 09:15:23;;;;;;;15.13;4.82;;;7.20;99.90;;;;;;5034965;28;20041;-65
2022/01/27 09:17:49;;;;;;;16.60;5.57;;;7.20;99.90;;;;;;5031974;28;20048;-66
2022/01/27 09:20:16;;;;;;;20.98;5.15;;;7.20;99.90;;;;;;5033946;28;20602;-66
2022/01/27 09:22:42;;;;;;;16.85;5.00;;;7.30;99.90;;;;;;5031600;28;20060;-65
2022/01/27 09:25:22;;;;;;;19.52;4.97;;;7.30;99.90;;;;;;5036196;28;20037;-66
2022/01/27 09:27:48;;;;;;;14.95;4.43;;;7.30;99.90;;;;;;5016041;28;20124;-66
2022/01/27 09:30:17;;;;;;;19.42;5.85;;;7.30;99.90;;;;;;5033322;28;20040;-66
2022/01/27 09:32:43;;;;;;;19.02;5.57;;;7.30;99.90;;;;;;5031795;28;20061;-66
2022/01/27 09:35:09;;;;;;;15.63;5.40;;;7.30;99.90;;;;;;5016096;28;20045;-67
2022/01/27 09:37:35;;;;;;;18.73;6.13;;;7.30;99.90;;;;;;5032797;28;20069;-67
2022/01/27 09:40:00;;;;;;;18.05;5.50;;;7.30;99.90;;;;;;5033621;28;20064;-67
2022/01/27 09:42:30;;;;;;;18.67;5.20;;;7.40;99.90;;;;;;5032698;28;20068;-66
2022/01/27 09:44:59;;;;;;;19.75;6.00;;;7.40;99.90;;;;;;5033676;28;20065;-66
2022/01/27 09:47:29;;;;;;;18.73;5.55;;;7.40;99.90;;;;;;5033626;28;20469;-67
2022/01/27 09:50:06;;;;;;;21.85;6.20;;;7.50;99.90;;;;;;5022985;28;20477;-67
2022/01/27 09:52:31;;;;;;;21.92;7.03;;;7.60;99.90;;;;;;5042765;28;20029;-67
2022/01/27 09:54:58;;;;;;;18.85;5.45;;;7.50;99.90;;;;;;5034193;28;20056;-67
2022/01/27 09:57:24;;;;;;;19.80;4.57;;;7.60;99.90;;;;;;5025860;28;20712;-66
2022/01/27 09:59:50;;;;;;;19.55;5.57;;;7.60;99.90;;;;;;5030458;28;20057;-64
2022/01/27 10:02:26;;;;;;;19.83;5.03;;;7.70;99.90;;;;;;5033000;28;20037;-67
2022/01/27 10:04:57;;;;;;;15.20;4.95;;;7.80;99.90;;;;;;5029718;28;20036;-67
2022/01/27 10:07:30;;;;;;;16.20;4.93;;;7.70;99.90;;;;;;5033698;28;20021;-66
2022/01/27 10:10:12;;;;;;;17.75;5.38;;;7.80;99.90;;;;;;5030631;28;20357;-66
2022/01/27 10:12:39;;;;;;;13.55;4.53;;;7.70;99.90;;;;;;5031979;28;20068;-67
2022/01/27 10:15:10;;;;;;;20.13;4.90;;;7.80;99.90;;;;;;5032477;28;20034;-67
2022/01/27 10:17:38;;;;;;;17.10;4.18;;;7.70;99.90;;;;;;5029967;28;20029;-67
2022/01/27 10:20:17;;;;;;;25.38;4.45;;;7.80;99.90;;;;;;5043997;28;20029;-67
2022/01/27 10:23:02;;;;;;;14.98;4.65;;;7.80;99.90;;;;;;5030212;28;20049;-67
2022/01/27 10:25:34;;;;;;;11.40;3.10;;;7.70;99.90;;;;;;5024427;28;20037;-67
2022/01/27 10:28:10;;;;;;;15.13;4.93;;;7.80;99.90;;;;;;5027862;28;20026;-66
2022/01/27 10:30:36;;;;;;;17.55;4.13;;;7.80;99.90;;;;;;5037513;28;20036;-69
2022/01/27 10:33:03;;;;;;;20.48;4.20;;;7.80;99.90;;;;;;5043583;28;20085;-67
2022/01/27 10:35:29;;;;;;;20.05;4.15;;;7.90;99.90;;;;;;5033021;28;20042;-68
2022/01/27 10:37:58;;;;;;;17.13;3.78;;;7.90;99.90;;;;;;5017020;28;20033;-66
2022/01/27 10:40:29;;;;;;;13.65;3.17;;;7.80;99.90;;;;;;5030978;28;20044;-67
2022/01/27 10:43:20;;;;;;;19.05;4.35;;;7.90;99.90;;;;;;5035772;28;20037;-65
2022/01/27 10:46:12;;;;;;;14.68;3.75;;;7.90;99.90;;;;;;5021545;28;20168;-68
2022/01/27 10:48:51;;;;;;;17.73;3.85;;;7.90;99.90;;;;;;5010895;28;20029;-67
2022/01/27 10:51:25;;;;;;;22.92;3.50;;;7.90;99.90;;;;;;5015418;28;20036;-67
2022/01/27 10:54:04;;;;;;;25.15;3.58;;;7.90;99.90;;;;;;5030206;28;20041;-67
2022/01/27 10:56:38;;;;;;;15.82;2.95;;;7.90;99.90;;;;;;5019531;28;20049;-67
2022/01/27 10:59:09;;;;;;;10.73;3.47;;;7.90;99.90;;;;;;5031953;28;20037;-65
2022/01/27 11:01:49;;;;;;;18.42;3.70;;;8.10;99.90;;;;;;5029826;28;20109;-67
2022/01/27 11:04:17;;;;;;;16.17;4.55;;;8.10;99.90;;;;;;5035643;28;20715;-67
2022/01/27 11:06:57;;;;;;;10.05;2.67;;;8.10;99.90;;;;;;5020060;28;20076;-67
2022/01/27 11:09:25;;;;;;;15.27;3.58;;;8.20;99.90;;;;;;5024350;28;20035;-67
2022/01/27 11:11:55;;;;;;;11.77;3.22;;;8.20;99.90;;;;;;5013301;28;20041;-65
2022/01/27 11:14:24;;;;;;;9.55;2.80;;;8.20;99.90;;;;;;5029404;28;20037;-69
2022/01/27 11:16:54;;;;;;;9.15;2.40;;;8.30;99.90;;;;;;5041227;28;20038;-67
2022/01/27 11:21:50;;;;;;;15.73;3.55;;;8.30;99.90;;;;;;5027075;28;20033;-65
2022/01/27 11:24:30;;;;;;;13.55;4.30;;;8.30;99.90;;;;;;5026747;28;20156;-67
2022/01/27 11:27:00;;;;;;;22.53;3.23;;;8.30;99.90;;;;;;5027465;28;20045;-67
2022/01/27 11:29:28;;;;;;;20.75;3.53;;;8.30;99.90;;;;;;5018878;28;20071;-67
2022/01/27 11:32:13;;;;;;;14.55;2.63;;;8.40;99.90;;;;;;5028606;28;20096;-67
2022/01/27 11:34:51;;;;;;;9.35;2.35;;;8.40;99.90;;;;;;5026927;28;20044;-67
2022/01/27 11:37:32;;;;;;;11.30;3.30;;;8.40;99.90;;;;;;5012764;28;20083;-67
2022/01/27 11:40:06;;;;;;;11.40;2.38;;;8.40;99.90;;;;;;5022783;28;20052;-66
2022/01/27 11:42:34;;;;;;;9.07;2.22;;;8.50;99.90;;;;;;5027169;28;20412;-66
2022/01/27 11:45:22;;;;;;;12.32;2.63;;;8.50;99.90;;;;;;5009957;28;20068;-67
2022/01/27 11:47:49;;;;;;;12.43;2.58;;;8.50;99.90;;;;;;5028082;28;20148;-67
2022/01/27 11:50:31;;;;;;;12.93;3.15;;;8.50;99.90;;;;;;5029093;28;20025;-67
2022/01/27 11:52:57;;;;;;;12.10;2.33;;;8.60;99.90;;;;;;5026992;28;20112;-66
2022/01/27 11:55:26;;;;;;;14.18;2.10;;;8.60;99.90;;;;;;5037909;28;20215;-67
2022/01/27 11:57:52;;;;;;;7.90;1.98;;;8.60;99.90;;;;;;5029872;28;20047;-66
2022/01/27 12:00:24;;;;;;;10.52;2.50;;;8.60;99.90;;;;;;5022995;28;20033;-66
2022/01/27 12:03:01;;;;;;;15.75;3.17;;;8.60;99.90;;;;;;5015401;28;20045;-67
2022/01/27 12:05:31;;;;;;;9.55;2.65;;;8.70;99.90;;;;;;5030187;28;20057;-67
2022/01/27 12:08:09;;;;;;;10.88;2.42;;;8.70;99.90;;;;;;5028626;28;20025;-67
2022/01/27 12:10:40;;;;;;;7.65;2.33;;;8.80;99.90;;;;;;5027052;28;20029;-70
2022/01/27 12:13:37;;;;;;;8.15;2.80;;;8.80;99.90;;;;;;5029422;28;20048;-67
2022/01/27 12:19:02;;;;;;;9.95;2.35;;;9.00;99.90;;;;;;5029375;28;20041;-68
2022/01/27 12:21:37;;;;;;;14.95;2.35;;;9.10;99.90;;;;;;5008852;28;20367;-69
2022/01/27 12:24:13;;;;;;;8.50;2.33;;;9.10;99.90;;;;;;5011518;28;20072;-68
2022/01/27 12:26:53;;;;;;;10.85;1.83;;;9.20;99.90;;;;;;5038753;28;20037;-68
2022/01/27 12:29:26;;;;;;;10.90;2.63;;;9.20;99.90;;;;;;5028341;28;20034;-69
2022/01/27 12:31:54;;;;;;;6.75;2.25;;;9.30;99.90;;;;;;5040479;28;20382;-67
2022/01/27 12:34:20;;;;;;;13.52;2.95;;;9.30;99.90;;;;;;5027318;28;20033;-69
2022/01/27 12:37:09;;;;;;;11.02;2.30;;;9.30;99.90;;;;;;5016538;28;20056;-68
2022/01/27 12:39:43;;;;;;;5.05;1.83;;;9.30;99.90;;;;;;5007588;28;20037;-67
2022/01/27 12:42:16;;;;;;;12.02;1.92;;;9.30;99.90;;;;;;5034028;28;20032;-64
2022/01/27 12:44:58;;;;;;;8.48;1.38;;;9.40;99.90;;;;;;5032097;28;20171;-68
2022/01/27 12:47:25;;;;;;;7.85;1.85;;;9.50;99.90;;;;;;5033625;28;20095;-69
2022/01/27 12:50:05;;;;;;;3.80;1.65;;;9.60;99.90;;;;;;5047185;28;20038;-69
2022/01/27 12:52:36;;;;;;;10.73;2.30;;;9.60;99.90;;;;;;5033172;28;20044;-66
2022/01/27 12:55:03;;;;;;;5.95;1.67;;;9.60;99.90;;;;;;5032405;28;20034;-69
2022/01/27 12:57:32;;;;;;;11.45;2.05;;;9.60;99.90;;;;;;5031455;28;20034;-69
2022/01/27 12:59:58;;;;;;;19.00;2.65;;;9.60;99.90;;;;;;5024447;28;20037;-66
2022/01/27 13:02:25;;;;;;;8.15;2.13;;;9.60;99.90;;;;;;5034060;28;20519;-66
2022/01/27 13:04:58;;;;;;;6.85;2.10;;;9.70;99.90;;;;;;5032444;28;20036;-67
2022/01/27 13:07:25;;;;;;;21.00;2.38;;;9.70;99.90;;;;;;5033114;28;20144;-66
2022/01/27 13:10:06;;;;;;;14.52;1.75;;;9.70;99.90;;;;;;5030508;28;20029;-66
2022/01/27 13:12:37;;;;;;;;;;;9.70;99.90;;;;;;5019074;28;20048;-65
2022/01/27 13:15:10;;;;;;;3.20;1.33;;;9.80;99.90;;;;;;5032477;28;19928;-67
2022/01/27 13:17:45;;;;;;;3.85;1.30;;;9.80;99.90;;;;;;5033282;28;20128;-70
2022/01/27 13:20:20;;;;;;;6.90;1.95;;;9.80;99.90;;;;;;5033328;28;20090;-67
2022/01/27 13:22:55;;;;;;;9.80;1.73;;;9.70;99.90;;;;;;5031148;28;20041;-67
2022/01/27 13:25:23;;;;;;;11.20;1.70;;;9.70;99.90;;;;;;5042553;28;20061;-65
2022/01/27 13:28:06;;;;;;;6.72;1.48;;;9.70;99.90;;;;;;5034145;28;20113;-66
2022/01/27 13:30:35;;;;;;;9.00;1.40;;;9.80;99.90;;;;;;5032362;28;20432;-67
2022/01/27 13:33:01;;;;;;;11.88;1.80;;;9.80;99.90;;;;;;5031370;28;20095;-68
2022/01/27 13:35:27;;;;;;;10.30;1.75;;;9.80;99.90;;;;;;5030123;28;20112;-69
2022/01/27 13:37:57;;;;;;;8.25;1.40;;;9.90;99.90;;;;;;5032303;28;20164;-67
2022/01/27 13:43:12;;;;;;;8.48;1.98;;;9.90;99.90;;;;;;5031505;28;20068;-67
2022/01/27 13:45:38;;;;;;;6.35;1.23;;;9.90;99.90;;;;;;5032592;28;20053;-67
2022/01/27 13:48:20;;;;;;;11.23;2.13;;;9.80;99.90;;;;;;5033045;28;20032;-67
2022/01/27 13:50:57;;;;;;;10.27;2.28;;;9.80;99.90;;;;;;5015723;28;20111;-67
2022/01/27 13:53:23;;;;;;;9.20;1.52;;;9.80;99.90;;;;;;5031972;28;20029;-66